<?xml version='1.0' encoding='UTF-8'?><gpx version="1.1" creator="JPX - https://github.com/jenetics/jpx" xmlns="http://www.topografix.com/GPX/1/1"><trk><trkseg><trkpt lat="40.135733545818574" lon="18.045507118939305"><ele>74.0</ele><time>2026-04-06T14:25:38Z</time></trkpt><trkpt lat="40.13582943597589" lon="18.04562720836464"><ele>74.0</ele><time>2026-04-06T14:25:40Z</time></trkpt><trkpt lat="40.13587785115627" lon="18.045706661633442"><ele>74.0</ele><time>2026-04-06T14:25:41Z</time></trkpt><trkpt lat="40.13594590136501" lon="18.04580705260131"><ele>74.0</ele><time>2026-04-06T14:25:42Z</time></trkpt><trkpt lat="40.13602289976431" lon="18.045908540172043"><ele>74.0</ele><time>2026-04-06T14:25:43Z</time></trkpt><trkpt lat="40.13611237023407" lon="18.04602385964041"><ele>74.0</ele><time>2026-04-06T14:25:44Z</time></trkpt><trkpt lat="40.13619420085172" lon="18.046134210772284"><ele>74.0</ele><time>2026-04-06T14:25:45Z</time></trkpt><trkpt lat="40.13629359655384" lon="18.046255109090446"><ele>74.0</ele><time>2026-04-06T14:25:46Z</time></trkpt><trkpt lat="40.13639260706882" lon="18.04637188475913"><ele>74.0</ele><time>2026-04-06T14:25:47Z</time></trkpt><trkpt lat="40.13649374739867" lon="18.046495814088615"><ele>73.66666666666667</ele><time>2026-04-06T14:25:48Z</time></trkpt><trkpt lat="40.13661005137396" lon="18.046625609337685"><ele>73.33333333333333</ele><time>2026-04-06T14:25:49Z</time></trkpt><trkpt lat="40.136730013905236" lon="18.046757482259473"><ele>73.0</ele><time>2026-04-06T14:25:50Z</time></trkpt><trkpt lat="40.13685276611709" lon="18.04689080001089"><ele>73.0</ele><time>2026-04-06T14:25:51Z</time></trkpt><trkpt lat="40.13697449884591" lon="18.047014983081116"><ele>73.0</ele><time>2026-04-06T14:25:52Z</time></trkpt><trkpt lat="40.13709714110882" lon="18.047136318662332"><ele>73.0</ele><time>2026-04-06T14:25:53Z</time></trkpt><trkpt lat="40.13722310380463" lon="18.047255964413022"><ele>73.0</ele><time>2026-04-06T14:25:54Z</time></trkpt><trkpt lat="40.137344230012964" lon="18.047381200176048"><ele>73.0</ele><time>2026-04-06T14:25:55Z</time></trkpt><trkpt lat="40.13746863058001" lon="18.047511063737012"><ele>73.0</ele><time>2026-04-06T14:25:56Z</time></trkpt><trkpt lat="40.13759246200298" lon="18.047641636967185"><ele>73.0</ele><time>2026-04-06T14:25:57Z</time></trkpt><trkpt lat="40.137718115578906" lon="18.047772447910972"><ele>73.0</ele><time>2026-04-06T14:25:58Z</time></trkpt><trkpt lat="40.13783967928912" lon="18.047897473237473"><ele>73.0</ele><time>2026-04-06T14:25:59Z</time></trkpt><trkpt lat="40.13796304144893" lon="18.048027199044554"><ele>73.0</ele><time>2026-04-06T14:26:00Z</time></trkpt><trkpt lat="40.138082305734386" lon="18.048150608811344"><ele>73.0</ele><time>2026-04-06T14:26:01Z</time></trkpt><trkpt lat="40.13820698204615" lon="18.048282234993152"><ele>73.0</ele><time>2026-04-06T14:26:02Z</time></trkpt><trkpt lat="40.13833255716088" lon="18.048410657493175"><ele>72.5</ele><time>2026-04-06T14:26:03Z</time></trkpt><trkpt lat="40.1384459322597" lon="18.048528543159318"><ele>72.0</ele><time>2026-04-06T14:26:04Z</time></trkpt><trkpt lat="40.138560599760666" lon="18.04865669953666"><ele>71.5</ele><time>2026-04-06T14:26:05Z</time></trkpt><trkpt lat="40.13866961515769" lon="18.048793502176707"><ele>71.0</ele><time>2026-04-06T14:26:06Z</time></trkpt><trkpt lat="40.13877413485598" lon="18.048939208228735"><ele>71.0</ele><time>2026-04-06T14:26:07Z</time></trkpt><trkpt lat="40.138876754803434" lon="18.04909327115511"><ele>71.0</ele><time>2026-04-06T14:26:08Z</time></trkpt><trkpt lat="40.13897168634214" lon="18.049262343790378"><ele>71.0</ele><time>2026-04-06T14:26:09Z</time></trkpt><trkpt lat="40.139052362423904" lon="18.049442846458266"><ele>70.66666666666667</ele><time>2026-04-06T14:26:10Z</time></trkpt><trkpt lat="40.139129789951006" lon="18.049631008539535"><ele>70.33333333333333</ele><time>2026-04-06T14:26:11Z</time></trkpt><trkpt lat="40.139209227839466" lon="18.04981088094968"><ele>70.0</ele><time>2026-04-06T14:26:12Z</time></trkpt><trkpt lat="40.13929687438906" lon="18.049985970498412"><ele>69.66666666666666</ele><time>2026-04-06T14:26:13Z</time></trkpt><trkpt lat="40.13939166056551" lon="18.050158022142604"><ele>69.33333333333333</ele><time>2026-04-06T14:26:14Z</time></trkpt><trkpt lat="40.13948635142874" lon="18.05032571192233"><ele>69.0</ele><time>2026-04-06T14:26:15Z</time></trkpt><trkpt lat="40.139589022839026" lon="18.050489065122907"><ele>69.0</ele><time>2026-04-06T14:26:16Z</time></trkpt><trkpt lat="40.13970221777718" lon="18.05063492061566"><ele>69.0</ele><time>2026-04-06T14:26:17Z</time></trkpt><trkpt lat="40.13982481891387" lon="18.05076486334036"><ele>69.0</ele><time>2026-04-06T14:26:18Z</time></trkpt><trkpt lat="40.13994767369952" lon="18.050870841804976"><ele>69.0</ele><time>2026-04-06T14:26:19Z</time></trkpt><trkpt lat="40.14007192975736" lon="18.050969422194893"><ele>69.0</ele><time>2026-04-06T14:26:20Z</time></trkpt><trkpt lat="40.140210222919336" lon="18.051049238779886"><ele>69.0</ele><time>2026-04-06T14:26:21Z</time></trkpt><trkpt lat="40.140354879932254" lon="18.051118218057994"><ele>69.0</ele><time>2026-04-06T14:26:22Z</time></trkpt><trkpt lat="40.140498306359014" lon="18.051191233760086"><ele>69.0</ele><time>2026-04-06T14:26:23Z</time></trkpt><trkpt lat="40.14064239444926" lon="18.051269509808304"><ele>69.0</ele><time>2026-04-06T14:26:24Z</time></trkpt><trkpt lat="40.140783476112446" lon="18.051351491144764"><ele>69.0</ele><time>2026-04-06T14:26:25Z</time></trkpt><trkpt lat="40.14092311248785" lon="18.05143129414602"><ele>69.0</ele><time>2026-04-06T14:26:26Z</time></trkpt><trkpt lat="40.141059579865754" lon="18.051512934199824"><ele>69.0</ele><time>2026-04-06T14:26:27Z</time></trkpt><trkpt lat="40.14118576882622" lon="18.051583490460327"><ele>69.0</ele><time>2026-04-06T14:26:28Z</time></trkpt><trkpt lat="40.14130793478932" lon="18.051648847205158"><ele>69.0</ele><time>2026-04-06T14:26:29Z</time></trkpt><trkpt lat="40.14143576534343" lon="18.05172190710549"><ele>69.0</ele><time>2026-04-06T14:26:30Z</time></trkpt><trkpt lat="40.14156302174551" lon="18.05179763579448"><ele>69.0</ele><time>2026-04-06T14:26:31Z</time></trkpt><trkpt lat="40.141690759066435" lon="18.051876900872543"><ele>69.0</ele><time>2026-04-06T14:26:32Z</time></trkpt><trkpt lat="40.14182116004688" lon="18.05195997290621"><ele>69.0</ele><time>2026-04-06T14:26:33Z</time></trkpt><trkpt lat="40.141953125140894" lon="18.052051591901574"><ele>69.0</ele><time>2026-04-06T14:26:34Z</time></trkpt><trkpt lat="40.14207142665932" lon="18.052152705080633"><ele>69.0</ele><time>2026-04-06T14:26:35Z</time></trkpt><trkpt lat="40.14218753006097" lon="18.052272374266497"><ele>69.0</ele><time>2026-04-06T14:26:36Z</time></trkpt><trkpt lat="40.142296724699634" lon="18.052407029255534"><ele>68.5</ele><time>2026-04-06T14:26:37Z</time></trkpt><trkpt lat="40.14240130925136" lon="18.052545509432246"><ele>68.0</ele><time>2026-04-06T14:26:38Z</time></trkpt><trkpt lat="40.14249905460419" lon="18.05267745126396"><ele>67.5</ele><time>2026-04-06T14:26:39Z</time></trkpt><trkpt lat="40.14259425895813" lon="18.052812510396404"><ele>67.0</ele><time>2026-04-06T14:26:40Z</time></trkpt><trkpt lat="40.1426943169787" lon="18.05294584691542"><ele>67.0</ele><time>2026-04-06T14:26:41Z</time></trkpt><trkpt lat="40.14279422331514" lon="18.053078938618835"><ele>67.0</ele><time>2026-04-06T14:26:42Z</time></trkpt><trkpt lat="40.142891778412654" lon="18.053209478968785"><ele>67.0</ele><time>2026-04-06T14:26:43Z</time></trkpt><trkpt lat="40.142994746271995" lon="18.053339342717237"><ele>67.0</ele><time>2026-04-06T14:26:44Z</time></trkpt><trkpt lat="40.143105016530285" lon="18.05348700473361"><ele>66.66666666666666</ele><time>2026-04-06T14:26:45Z</time></trkpt><trkpt lat="40.14321734400702" lon="18.053638370539403"><ele>66.33333333333333</ele><time>2026-04-06T14:26:46Z</time></trkpt><trkpt lat="40.1433239637914" lon="18.0537812784386"><ele>66.0</ele><time>2026-04-06T14:26:47Z</time></trkpt><trkpt lat="40.14343016504766" lon="18.05391567900349"><ele>66.0</ele><time>2026-04-06T14:26:48Z</time></trkpt><trkpt lat="40.143532847356845" lon="18.054045085594478"><ele>66.0</ele><time>2026-04-06T14:26:49Z</time></trkpt><trkpt lat="40.143629487265166" lon="18.054184721444877"><ele>66.0</ele><time>2026-04-06T14:26:50Z</time></trkpt><trkpt lat="40.14371717518314" lon="18.054330812197165"><ele>66.0</ele><time>2026-04-06T14:26:51Z</time></trkpt><trkpt lat="40.14381687021036" lon="18.054495053871005"><ele>66.33333333333333</ele><time>2026-04-06T14:26:52Z</time></trkpt><trkpt lat="40.1439190406246" lon="18.054679155964223"><ele>66.66666666666666</ele><time>2026-04-06T14:26:53Z</time></trkpt><trkpt lat="40.14402229802409" lon="18.054881945621904"><ele>67.0</ele><time>2026-04-06T14:26:54Z</time></trkpt><trkpt lat="40.14411595502326" lon="18.05507839715138"><ele>66.33333333333333</ele><time>2026-04-06T14:26:55Z</time></trkpt><trkpt lat="40.14420001051094" lon="18.055259690607237"><ele>65.66666666666667</ele><time>2026-04-06T14:26:56Z</time></trkpt><trkpt lat="40.14427652739543" lon="18.055434055781163"><ele>65.0</ele><time>2026-04-06T14:26:57Z</time></trkpt><trkpt lat="40.14435741333586" lon="18.0556114177036"><ele>65.33333333333334</ele><time>2026-04-06T14:26:58Z</time></trkpt><trkpt lat="40.14443973405409" lon="18.05580624794238"><ele>65.66666666666667</ele><time>2026-04-06T14:26:59Z</time></trkpt><trkpt lat="40.144517703737726" lon="18.055982489348448"><ele>66.0</ele><time>2026-04-06T14:27:00Z</time></trkpt><trkpt lat="40.14458700908437" lon="18.0561505769199"><ele>66.0</ele><time>2026-04-06T14:27:01Z</time></trkpt><trkpt lat="40.14465438615948" lon="18.05633845951733"><ele>66.0</ele><time>2026-04-06T14:27:02Z</time></trkpt><trkpt lat="40.14471878640701" lon="18.056548036125147"><ele>66.0</ele><time>2026-04-06T14:27:03Z</time></trkpt><trkpt lat="40.14477233493644" lon="18.056741137183945"><ele>66.0</ele><time>2026-04-06T14:27:04Z</time></trkpt><trkpt lat="40.1448201427081" lon="18.056926913318073"><ele>66.0</ele><time>2026-04-06T14:27:05Z</time></trkpt><trkpt lat="40.144855543807154" lon="18.057109392023314"><ele>66.0</ele><time>2026-04-06T14:27:06Z</time></trkpt><trkpt lat="40.14488968978481" lon="18.057279914363576"><ele>66.0</ele><time>2026-04-06T14:27:07Z</time></trkpt><trkpt lat="40.14492595201376" lon="18.057443709452187"><ele>65.6</ele><time>2026-04-06T14:27:08Z</time></trkpt><trkpt lat="40.14495821644981" lon="18.057598959461984"><ele>65.19999999999999</ele><time>2026-04-06T14:27:09Z</time></trkpt><trkpt lat="40.144980996479646" lon="18.05772738499962"><ele>64.80000000000001</ele><time>2026-04-06T14:27:10Z</time></trkpt><trkpt lat="40.144992267367876" lon="18.05781617113377"><ele>64.4</ele><time>2026-04-06T14:27:11Z</time></trkpt><trkpt lat="40.14501108111792" lon="18.057907522837944"><ele>64.0</ele><time>2026-04-06T14:27:13Z</time></trkpt><trkpt lat="40.14503912165187" lon="18.058035811446008"><ele>64.0</ele><time>2026-04-06T14:27:15Z</time></trkpt><trkpt lat="40.14505345768999" lon="18.058130991964646"><ele>63.99999999999999</ele><time>2026-04-06T14:27:16Z</time></trkpt><trkpt lat="40.14506745650505" lon="18.0582113853141"><ele>64.0</ele><time>2026-04-06T14:27:17Z</time></trkpt><trkpt lat="40.14508345690523" lon="18.05830032244276"><ele>64.0</ele><time>2026-04-06T14:27:18Z</time></trkpt><trkpt lat="40.145110316766775" lon="18.05840338396412"><ele>63.99999999999999</ele><time>2026-04-06T14:27:19Z</time></trkpt><trkpt lat="40.145143481893705" lon="18.058493944901535"><ele>64.0</ele><time>2026-04-06T14:27:20Z</time></trkpt><trkpt lat="40.145193218465245" lon="18.05857289838206"><ele>64.0</ele><time>2026-04-06T14:27:21Z</time></trkpt><trkpt lat="40.14525287312903" lon="18.058645393526632"><ele>63.99999999999999</ele><time>2026-04-06T14:27:22Z</time></trkpt><trkpt lat="40.14531947923796" lon="18.05871168468312"><ele>64.0</ele><time>2026-04-06T14:27:23Z</time></trkpt><trkpt lat="40.145383960724416" lon="18.058780344798897"><ele>64.0</ele><time>2026-04-06T14:27:24Z</time></trkpt><trkpt lat="40.14544397624343" lon="18.058845108194262"><ele>64.0</ele><time>2026-04-06T14:27:25Z</time></trkpt><trkpt lat="40.145501638895226" lon="18.058911611920863"><ele>63.99999999999999</ele><time>2026-04-06T14:27:26Z</time></trkpt><trkpt lat="40.14555439387598" lon="18.05896862172137"><ele>64.0</ele><time>2026-04-06T14:27:27Z</time></trkpt><trkpt lat="40.14560315748517" lon="18.059027690096233"><ele>63.99999999999999</ele><time>2026-04-06T14:27:28Z</time></trkpt><trkpt lat="40.14564160334803" lon="18.059097757326406"><ele>64.0</ele><time>2026-04-06T14:27:29Z</time></trkpt><trkpt lat="40.145724528069174" lon="18.059204342522115"><ele>64.0</ele><time>2026-04-06T14:27:31Z</time></trkpt><trkpt lat="40.14578278734918" lon="18.059256425625204"><ele>64.0</ele><time>2026-04-06T14:27:32Z</time></trkpt><trkpt lat="40.14585028266301" lon="18.059326610725343"><ele>63.99999999999999</ele><time>2026-04-06T14:27:33Z</time></trkpt><trkpt lat="40.14591228658753" lon="18.05939116421554"><ele>64.0</ele><time>2026-04-06T14:27:34Z</time></trkpt><trkpt lat="40.145968383411564" lon="18.059457750462418"><ele>63.57142857142857</ele><time>2026-04-06T14:27:35Z</time></trkpt><trkpt lat="40.14601989106391" lon="18.059525047799067"><ele>63.14285714285714</ele><time>2026-04-06T14:27:36Z</time></trkpt><trkpt lat="40.14607110137591" lon="18.059589882248957"><ele>62.71428571428571</ele><time>2026-04-06T14:27:37Z</time></trkpt><trkpt lat="40.14611868317364" lon="18.059657141639857"><ele>62.28571428571428</ele><time>2026-04-06T14:27:38Z</time></trkpt><trkpt lat="40.14616064200105" lon="18.059731574650208"><ele>61.857142857142854</ele><time>2026-04-06T14:27:39Z</time></trkpt><trkpt lat="40.146197833230424" lon="18.059809023913257"><ele>61.428571428571416</ele><time>2026-04-06T14:27:40Z</time></trkpt><trkpt lat="40.14623887617977" lon="18.05988325937392"><ele>60.99999999999999</ele><time>2026-04-06T14:27:41Z</time></trkpt><trkpt lat="40.14627470596525" lon="18.05996167252057"><ele>60.83333333333333</ele><time>2026-04-06T14:27:42Z</time></trkpt><trkpt lat="40.1463163839213" lon="18.06004302522578"><ele>60.666666666666664</ele><time>2026-04-06T14:27:43Z</time></trkpt><trkpt lat="40.146352867788906" lon="18.06012407216186"><ele>60.5</ele><time>2026-04-06T14:27:44Z</time></trkpt><trkpt lat="40.146391101725726" lon="18.06020062332816"><ele>60.33333333333333</ele><time>2026-04-06T14:27:45Z</time></trkpt><trkpt lat="40.146431761390396" lon="18.060275678168175"><ele>60.166666666666664</ele><time>2026-04-06T14:27:46Z</time></trkpt><trkpt lat="40.14646644625324" lon="18.06034868999443"><ele>60.0</ele><time>2026-04-06T14:27:47Z</time></trkpt><trkpt lat="40.146530666437684" lon="18.060480842427484"><ele>59.714285714285715</ele><time>2026-04-06T14:27:49Z</time></trkpt><trkpt lat="40.14656550336289" lon="18.060550294608046"><ele>59.42857142857143</ele><time>2026-04-06T14:27:50Z</time></trkpt><trkpt lat="40.146602422344365" lon="18.060622067403674"><ele>59.142857142857146</ele><time>2026-04-06T14:27:51Z</time></trkpt><trkpt lat="40.1466395100471" lon="18.060700523779698"><ele>58.85714285714286</ele><time>2026-04-06T14:27:52Z</time></trkpt><trkpt lat="40.146672081506175" lon="18.06077985018697"><ele>58.57142857142857</ele><time>2026-04-06T14:27:53Z</time></trkpt><trkpt lat="40.146711206529226" lon="18.060859710972682"><ele>58.28571428571429</ele><time>2026-04-06T14:27:54Z</time></trkpt><trkpt lat="40.146738219990745" lon="18.060936462227033"><ele>58.00000000000001</ele><time>2026-04-06T14:27:55Z</time></trkpt><trkpt lat="40.14678152093633" lon="18.06106918475911"><ele>57.99999999999999</ele><time>2026-04-06T14:27:57Z</time></trkpt><trkpt lat="40.14678478513597" lon="18.061154469013427"><ele>58.0</ele><time>2026-04-06T14:27:59Z</time></trkpt><trkpt lat="40.14679397111397" lon="18.061238061680655"><ele>58.0</ele><time>2026-04-06T14:28:36Z</time></trkpt><trkpt lat="40.14680715791292" lon="18.061355292619066"><ele>58.0</ele><time>2026-04-06T14:28:38Z</time></trkpt><trkpt lat="40.14682464664434" lon="18.061524990007037"><ele>57.99999999999999</ele><time>2026-04-06T14:28:40Z</time></trkpt><trkpt lat="40.14683361685993" lon="18.061625465628044"><ele>58.0</ele><time>2026-04-06T14:28:41Z</time></trkpt><trkpt lat="40.14683908708122" lon="18.061727917835935"><ele>58.0</ele><time>2026-04-06T14:28:42Z</time></trkpt><trkpt lat="40.14684283066748" lon="18.061849261786218"><ele>58.0</ele><time>2026-04-06T14:28:43Z</time></trkpt><trkpt lat="40.146845572829534" lon="18.061976771744096"><ele>58.0</ele><time>2026-04-06T14:28:44Z</time></trkpt><trkpt lat="40.14686389658785" lon="18.062100943811725"><ele>58.0</ele><time>2026-04-06T14:28:45Z</time></trkpt><trkpt lat="40.14686363964923" lon="18.062219119882005"><ele>58.0</ele><time>2026-04-06T14:28:46Z</time></trkpt><trkpt lat="40.146875837627476" lon="18.062338258819736"><ele>57.99999999999999</ele><time>2026-04-06T14:28:47Z</time></trkpt><trkpt lat="40.14687847087862" lon="18.062457135636876"><ele>58.0</ele><time>2026-04-06T14:28:48Z</time></trkpt><trkpt lat="40.1468803262305" lon="18.062560337437695"><ele>58.0</ele><time>2026-04-06T14:28:49Z</time></trkpt><trkpt lat="40.14688103650364" lon="18.062668901797846"><ele>58.0</ele><time>2026-04-06T14:28:50Z</time></trkpt><trkpt lat="40.146877091543104" lon="18.06276997490011"><ele>57.99999999999999</ele><time>2026-04-06T14:28:51Z</time></trkpt><trkpt lat="40.14688157470275" lon="18.06288775816308"><ele>58.0</ele><time>2026-04-06T14:28:52Z</time></trkpt><trkpt lat="40.14687744744217" lon="18.06301109200582"><ele>58.0</ele><time>2026-04-06T14:28:53Z</time></trkpt><trkpt lat="40.14687191392687" lon="18.063124959580673"><ele>58.0</ele><time>2026-04-06T14:28:54Z</time></trkpt><trkpt lat="40.14690064788788" lon="18.06323068618988"><ele>58.0</ele><time>2026-04-06T14:28:55Z</time></trkpt><trkpt lat="40.1469013717672" lon="18.063365175989944"><ele>58.0</ele><time>2026-04-06T14:28:56Z</time></trkpt><trkpt lat="40.1469119838772" lon="18.06349278729264"><ele>58.0</ele><time>2026-04-06T14:28:57Z</time></trkpt><trkpt lat="40.14691413910032" lon="18.063605405307868"><ele>58.166666666666664</ele><time>2026-04-06T14:28:58Z</time></trkpt><trkpt lat="40.146896236953594" lon="18.063707447050955"><ele>58.33333333333333</ele><time>2026-04-06T14:28:59Z</time></trkpt><trkpt lat="40.14684452946847" lon="18.063771662641788"><ele>58.5</ele><time>2026-04-06T14:29:00Z</time></trkpt><trkpt lat="40.14679177675969" lon="18.063856838768427"><ele>58.66666666666667</ele><time>2026-04-06T14:29:01Z</time></trkpt><trkpt lat="40.14674508100259" lon="18.063940753137153"><ele>58.833333333333336</ele><time>2026-04-06T14:29:02Z</time></trkpt><trkpt lat="40.146702753507505" lon="18.064016817153334"><ele>59.0</ele><time>2026-04-06T14:29:03Z</time></trkpt><trkpt lat="40.14665914800357" lon="18.06409775142814"><ele>59.00000000000001</ele><time>2026-04-06T14:29:04Z</time></trkpt><trkpt lat="40.14662049726633" lon="18.064175945162656"><ele>59.0</ele><time>2026-04-06T14:29:05Z</time></trkpt><trkpt lat="40.146569877901506" lon="18.064309323718874"><ele>59.0</ele><time>2026-04-06T14:29:07Z</time></trkpt><trkpt lat="40.1465334904695" lon="18.064379547446016"><ele>59.0</ele><time>2026-04-06T14:29:09Z</time></trkpt><trkpt lat="40.146603944387" lon="18.06452313835311"><ele>59.00000000000001</ele><time>2026-04-06T14:29:12Z</time></trkpt><trkpt lat="40.146663793502874" lon="18.064565522432357"><ele>59.0</ele><time>2026-04-06T14:29:13Z</time></trkpt><trkpt lat="40.1467286340529" lon="18.064604809881175"><ele>59.0</ele><time>2026-04-06T14:29:14Z</time></trkpt><trkpt lat="40.14678749407522" lon="18.064642977209328"><ele>59.00000000000001</ele><time>2026-04-06T14:29:15Z</time></trkpt><trkpt lat="40.14685343578814" lon="18.06469126452541"><ele>59.00000000000001</ele><time>2026-04-06T14:29:16Z</time></trkpt><trkpt lat="40.14695074065672" lon="18.064785609046623"><ele>59.0</ele><time>2026-04-06T14:29:18Z</time></trkpt><trkpt lat="40.14706007778914" lon="18.064860568487752"><ele>59.0</ele><time>2026-04-06T14:29:20Z</time></trkpt><trkpt lat="40.14715873549262" lon="18.064947194252518"><ele>59.0</ele><time>2026-04-06T14:29:22Z</time></trkpt><trkpt lat="40.14724337903481" lon="18.06500225260889"><ele>59.00000000000001</ele><time>2026-04-06T14:29:24Z</time></trkpt><trkpt lat="40.147312474977866" lon="18.064997610249844"><ele>59.00000000000001</ele><time>2026-04-06T14:29:31Z</time></trkpt><trkpt lat="40.1473421364884" lon="18.064840806020495"><ele>59.0</ele><time>2026-04-06T14:29:33Z</time></trkpt><trkpt lat="40.14734890546434" lon="18.06467707353581"><ele>59.0</ele><time>2026-04-06T14:29:35Z</time></trkpt><trkpt lat="40.14735173913789" lon="18.064513616744044"><ele>59.00000000000001</ele><time>2026-04-06T14:29:37Z</time></trkpt><trkpt lat="40.14735585998252" lon="18.064419471004392"><ele>59.0</ele><time>2026-04-06T14:29:38Z</time></trkpt><trkpt lat="40.14736102420763" lon="18.064328738150646"><ele>59.0</ele><time>2026-04-06T14:29:39Z</time></trkpt><trkpt lat="40.14736853502679" lon="18.064242527506515"><ele>59.0</ele><time>2026-04-06T14:29:40Z</time></trkpt><trkpt lat="40.147380498482526" lon="18.064081958534484"><ele>59.00000000000001</ele><time>2026-04-06T14:29:42Z</time></trkpt><trkpt lat="40.147401870114834" lon="18.06394967247061"><ele>59.0</ele><time>2026-04-06T14:29:44Z</time></trkpt><trkpt lat="40.14742717348913" lon="18.063834773397456"><ele>58.833333333333336</ele><time>2026-04-06T14:29:46Z</time></trkpt><trkpt lat="40.147472386645994" lon="18.063737220855003"><ele>58.66666666666667</ele><time>2026-04-06T14:29:48Z</time></trkpt><trkpt lat="40.14751163713134" lon="18.063666207201532"><ele>58.5</ele><time>2026-04-06T14:29:50Z</time></trkpt><trkpt lat="40.14754925834573" lon="18.063588482427456"><ele>58.33333333333333</ele><time>2026-04-06T14:29:54Z</time></trkpt><trkpt lat="40.147484742144286" lon="18.063519872895355"><ele>58.166666666666664</ele><time>2026-04-06T14:29:56Z</time></trkpt><trkpt lat="40.14740418780591" lon="18.063588428911462"><ele>58.0</ele><time>2026-04-06T14:29:58Z</time></trkpt><trkpt lat="40.147377751446825" lon="18.06372328137708"><ele>58.166666666666664</ele><time>2026-04-06T14:30:00Z</time></trkpt><trkpt lat="40.14736097218342" lon="18.063814374034415"><ele>58.33333333333333</ele><time>2026-04-06T14:30:02Z</time></trkpt><trkpt lat="40.147355957140526" lon="18.06393060272463"><ele>58.5</ele><time>2026-04-06T14:30:04Z</time></trkpt><trkpt lat="40.14734587749104" lon="18.06402140904796"><ele>58.66666666666667</ele><time>2026-04-06T14:30:05Z</time></trkpt><trkpt lat="40.147332272118724" lon="18.06417438320557"><ele>58.833333333333336</ele><time>2026-04-06T14:30:07Z</time></trkpt><trkpt lat="40.14732963356567" lon="18.064257361528604"><ele>59.0</ele><time>2026-04-06T14:30:08Z</time></trkpt><trkpt lat="40.14732316795698" lon="18.064343496984126"><ele>59.0</ele><time>2026-04-06T14:30:09Z</time></trkpt><trkpt lat="40.14731453459874" lon="18.064428020501754"><ele>59.00000000000001</ele><time>2026-04-06T14:30:10Z</time></trkpt><trkpt lat="40.1473060608168" lon="18.064588128676878"><ele>59.00000000000001</ele><time>2026-04-06T14:30:12Z</time></trkpt><trkpt lat="40.14730338651829" lon="18.06473216525042"><ele>59.0</ele><time>2026-04-06T14:30:14Z</time></trkpt><trkpt lat="40.14730277641661" lon="18.064837926363595"><ele>59.0</ele><time>2026-04-06T14:30:16Z</time></trkpt><trkpt lat="40.14735960332487" lon="18.0649344614822"><ele>58.833333333333336</ele><time>2026-04-06T14:30:20Z</time></trkpt><trkpt lat="40.147360148680534" lon="18.065071180655707"><ele>58.66666666666667</ele><time>2026-04-06T14:30:21Z</time></trkpt><trkpt lat="40.147435921045954" lon="18.0649976102499"><ele>58.5</ele><time>2026-04-06T14:30:22Z</time></trkpt><trkpt lat="40.14749185134726" lon="18.064934083132773"><ele>58.33333333333333</ele><time>2026-04-06T14:30:23Z</time></trkpt><trkpt lat="40.147552591482714" lon="18.06487375796771"><ele>58.166666666666664</ele><time>2026-04-06T14:30:25Z</time></trkpt><trkpt lat="40.14762021013724" lon="18.064866006131552"><ele>58.0</ele><time>2026-04-06T14:30:28Z</time></trkpt><trkpt lat="40.14769049869563" lon="18.065072001398626"><ele>58.0</ele><time>2026-04-06T14:30:29Z</time></trkpt><trkpt lat="40.1477308437643" lon="18.065157874411184"><ele>58.0</ele><time>2026-04-06T14:30:30Z</time></trkpt><trkpt lat="40.14775225954822" lon="18.065299691692122"><ele>58.0</ele><time>2026-04-06T14:30:32Z</time></trkpt><trkpt lat="40.1477896010691" lon="18.065421256082708"><ele>58.0</ele><time>2026-04-06T14:30:34Z</time></trkpt><trkpt lat="40.14783644786521" lon="18.06556300307862"><ele>58.0</ele><time>2026-04-06T14:30:36Z</time></trkpt><trkpt lat="40.14787556703748" lon="18.06570660364687"><ele>58.0</ele><time>2026-04-06T14:30:38Z</time></trkpt><trkpt lat="40.14791944387478" lon="18.065788541586784"><ele>58.0</ele><time>2026-04-06T14:30:40Z</time></trkpt><trkpt lat="40.14798787820563" lon="18.06578776425864"><ele>58.0</ele><time>2026-04-06T14:30:42Z</time></trkpt><trkpt lat="40.148087676760625" lon="18.06569344938437"><ele>58.0</ele><time>2026-04-06T14:30:44Z</time></trkpt><trkpt lat="40.14818553920321" lon="18.065624757009186"><ele>58.0</ele><time>2026-04-06T14:30:46Z</time></trkpt><trkpt lat="40.14828020992909" lon="18.065564579736716"><ele>58.4</ele><time>2026-04-06T14:30:48Z</time></trkpt><trkpt lat="40.148348268904996" lon="18.06551027208062"><ele>58.8</ele><time>2026-04-06T14:30:50Z</time></trkpt><trkpt lat="40.14842541281837" lon="18.065460236851674"><ele>59.2</ele><time>2026-04-06T14:30:53Z</time></trkpt><trkpt lat="40.148532333538064" lon="18.065371325269208"><ele>59.6</ele><time>2026-04-06T14:30:55Z</time></trkpt><trkpt lat="40.148589088083234" lon="18.065332961562323"><ele>60.0</ele><time>2026-04-06T14:30:56Z</time></trkpt><trkpt lat="40.14868628754922" lon="18.065265658906174"><ele>60.0</ele><time>2026-04-06T14:30:58Z</time></trkpt><trkpt lat="40.14877207644674" lon="18.065206134453746"><ele>60.0</ele><time>2026-04-06T14:31:00Z</time></trkpt><trkpt lat="40.14883772850627" lon="18.065151299669076"><ele>60.0</ele><time>2026-04-06T14:31:02Z</time></trkpt><trkpt lat="40.14891512591224" lon="18.06512351729443"><ele>60.0</ele><time>2026-04-06T14:31:06Z</time></trkpt><trkpt lat="40.14899579402405" lon="18.065232634369995"><ele>60.0</ele><time>2026-04-06T14:31:09Z</time></trkpt><trkpt lat="40.14905906348299" lon="18.06536660110017"><ele>59.666666666666664</ele><time>2026-04-06T14:31:11Z</time></trkpt><trkpt lat="40.1491018105814" lon="18.065444494321383"><ele>59.33333333333333</ele><time>2026-04-06T14:31:13Z</time></trkpt><trkpt lat="40.14918146322884" lon="18.06547177268076"><ele>59.0</ele><time>2026-04-06T14:31:17Z</time></trkpt><trkpt lat="40.14929091132356" lon="18.06536515545054"><ele>58.666666666666664</ele><time>2026-04-06T14:31:19Z</time></trkpt><trkpt lat="40.14934707164966" lon="18.065318115003443"><ele>58.33333333333333</ele><time>2026-04-06T14:31:20Z</time></trkpt><trkpt lat="40.14941940403682" lon="18.065268853846227"><ele>58.0</ele><time>2026-04-06T14:31:21Z</time></trkpt><trkpt lat="40.14950001110112" lon="18.06522391750331"><ele>58.00000000000001</ele><time>2026-04-06T14:31:22Z</time></trkpt><trkpt lat="40.149566369604216" lon="18.065170846559262"><ele>58.0</ele><time>2026-04-06T14:31:23Z</time></trkpt><trkpt lat="40.149630728316524" lon="18.065134037743817"><ele>58.00000000000001</ele><time>2026-04-06T14:31:24Z</time></trkpt><trkpt lat="40.149696937298934" lon="18.065115281341477"><ele>58.00000000000001</ele><time>2026-04-06T14:31:25Z</time></trkpt><trkpt lat="40.14977230422121" lon="18.065101364457245"><ele>58.0</ele><time>2026-04-06T14:31:26Z</time></trkpt><trkpt lat="40.14985080624959" lon="18.065091413807373"><ele>58.00000000000001</ele><time>2026-04-06T14:31:27Z</time></trkpt><trkpt lat="40.149922171195186" lon="18.06507805399952"><ele>58.00000000000001</ele><time>2026-04-06T14:31:28Z</time></trkpt><trkpt lat="40.14998636810479" lon="18.06505713639849"><ele>57.666666666666664</ele><time>2026-04-06T14:31:29Z</time></trkpt><trkpt lat="40.150054629246405" lon="18.065047952098627"><ele>57.33333333333333</ele><time>2026-04-06T14:31:30Z</time></trkpt><trkpt lat="40.150160826925806" lon="18.065023234186075"><ele>57.0</ele><time>2026-04-06T14:31:32Z</time></trkpt><trkpt lat="40.150222685863" lon="18.065000454692207"><ele>56.66666666666667</ele><time>2026-04-06T14:31:36Z</time></trkpt><trkpt lat="40.15029556757077" lon="18.064994315780005"><ele>56.333333333333336</ele><time>2026-04-06T14:31:38Z</time></trkpt><trkpt lat="40.15042495511736" lon="18.065030771639652"><ele>56.0</ele><time>2026-04-06T14:31:40Z</time></trkpt><trkpt lat="40.15054309169194" lon="18.06506166839121"><ele>56.0</ele><time>2026-04-06T14:31:42Z</time></trkpt><trkpt lat="40.150674622953055" lon="18.065092562671747"><ele>55.99999999999999</ele><time>2026-04-06T14:31:44Z</time></trkpt><trkpt lat="40.150737602082366" lon="18.065114455952376"><ele>55.99999999999999</ele><time>2026-04-06T14:31:45Z</time></trkpt><trkpt lat="40.15079850025479" lon="18.065137260267765"><ele>56.0</ele><time>2026-04-06T14:31:46Z</time></trkpt><trkpt lat="40.1509094058072" lon="18.065176728714704"><ele>56.0</ele><time>2026-04-06T14:31:48Z</time></trkpt><trkpt lat="40.15104020063967" lon="18.065218513360445"><ele>55.66666666666667</ele><time>2026-04-06T14:31:50Z</time></trkpt><trkpt lat="40.15111223986408" lon="18.06523921376998"><ele>55.333333333333336</ele><time>2026-04-06T14:31:51Z</time></trkpt><trkpt lat="40.151178092384264" lon="18.065263099957953"><ele>55.0</ele><time>2026-04-06T14:31:52Z</time></trkpt><trkpt lat="40.15129482121177" lon="18.065291082321444"><ele>54.66666666666667</ele><time>2026-04-06T14:31:54Z</time></trkpt><trkpt lat="40.15140191420242" lon="18.065329017739337"><ele>54.333333333333336</ele><time>2026-04-06T14:31:56Z</time></trkpt><trkpt lat="40.15146497228972" lon="18.065357478380022"><ele>54.0</ele><time>2026-04-06T14:31:58Z</time></trkpt><trkpt lat="40.15155439495174" lon="18.065307225868253"><ele>53.833333333333336</ele><time>2026-04-06T14:32:02Z</time></trkpt><trkpt lat="40.15161932577511" lon="18.065195997429523"><ele>53.66666666666667</ele><time>2026-04-06T14:32:04Z</time></trkpt><trkpt lat="40.15166275457338" lon="18.065108989582562"><ele>53.5</ele><time>2026-04-06T14:32:06Z</time></trkpt><trkpt lat="40.15169827087098" lon="18.065015407328644"><ele>53.333333333333336</ele><time>2026-04-06T14:32:08Z</time></trkpt><trkpt lat="40.15173761440654" lon="18.06490953826685"><ele>53.16666666666667</ele><time>2026-04-06T14:32:10Z</time></trkpt><trkpt lat="40.15176691849186" lon="18.064823104143287"><ele>53.0</ele><time>2026-04-06T14:32:12Z</time></trkpt><trkpt lat="40.151816114338956" lon="18.064721501537786"><ele>53.0</ele><time>2026-04-06T14:32:15Z</time></trkpt><trkpt lat="40.15184264061842" lon="18.06463698443749"><ele>53.0</ele><time>2026-04-06T14:32:19Z</time></trkpt><trkpt lat="40.15180957990773" lon="18.064734841717804"><ele>53.0</ele><time>2026-04-06T14:32:23Z</time></trkpt><trkpt lat="40.151765779148924" lon="18.064843313664234"><ele>53.0</ele><time>2026-04-06T14:32:25Z</time></trkpt><trkpt lat="40.151715411046105" lon="18.06496689396395"><ele>53.0</ele><time>2026-04-06T14:32:27Z</time></trkpt><trkpt lat="40.15166384423739" lon="18.065092360732564"><ele>53.0</ele><time>2026-04-06T14:32:29Z</time></trkpt><trkpt lat="40.151616482663485" lon="18.06520161434531"><ele>53.0</ele><time>2026-04-06T14:32:31Z</time></trkpt><trkpt lat="40.151649877445855" lon="18.065299681201605"><ele>53.0</ele><time>2026-04-06T14:32:34Z</time></trkpt><trkpt lat="40.15178172034528" lon="18.06538677020104"><ele>53.0</ele><time>2026-04-06T14:32:35Z</time></trkpt><trkpt lat="40.15184662628228" lon="18.06543041108896"><ele>53.0</ele><time>2026-04-06T14:32:36Z</time></trkpt><trkpt lat="40.151904754013906" lon="18.06548032509072"><ele>53.0</ele><time>2026-04-06T14:32:37Z</time></trkpt><trkpt lat="40.15200195233183" lon="18.065558886292234"><ele>53.0</ele><time>2026-04-06T14:32:39Z</time></trkpt><trkpt lat="40.152113920034346" lon="18.065640113159223"><ele>53.0</ele><time>2026-04-06T14:32:41Z</time></trkpt><trkpt lat="40.15217774958632" lon="18.06568623616369"><ele>53.0</ele><time>2026-04-06T14:32:42Z</time></trkpt><trkpt lat="40.1522419263367" lon="18.06572955420654"><ele>53.0</ele><time>2026-04-06T14:32:43Z</time></trkpt><trkpt lat="40.15230525486301" lon="18.06577202864191"><ele>53.00000000000001</ele><time>2026-04-06T14:32:44Z</time></trkpt><trkpt lat="40.15236016475151" lon="18.065832329369087"><ele>53.0</ele><time>2026-04-06T14:32:45Z</time></trkpt><trkpt lat="40.15241788751106" lon="18.065876079162518"><ele>53.0</ele><time>2026-04-06T14:32:46Z</time></trkpt><trkpt lat="40.152518338250246" lon="18.065950576461358"><ele>53.0</ele><time>2026-04-06T14:32:48Z</time></trkpt><trkpt lat="40.15258174884061" lon="18.065972375106547"><ele>53.00000000000001</ele><time>2026-04-06T14:32:49Z</time></trkpt><trkpt lat="40.15268085268253" lon="18.06605125000185"><ele>53.0</ele><time>2026-04-06T14:32:51Z</time></trkpt><trkpt lat="40.15274763385436" lon="18.066091406436552"><ele>52.599999999999994</ele><time>2026-04-06T14:32:53Z</time></trkpt><trkpt lat="40.15285037028139" lon="18.06598513907826"><ele>52.199999999999996</ele><time>2026-04-06T14:32:58Z</time></trkpt><trkpt lat="40.152886646037985" lon="18.065895491853578"><ele>51.8</ele><time>2026-04-06T14:33:00Z</time></trkpt><trkpt lat="40.15293774868231" lon="18.06584432869249"><ele>51.4</ele><time>2026-04-06T14:33:16Z</time></trkpt><trkpt lat="40.152897001530214" lon="18.065698514283465"><ele>51.0</ele><time>2026-04-06T14:33:19Z</time></trkpt><trkpt lat="40.15285090994617" lon="18.065639612266743"><ele>50.833333333333336</ele><time>2026-04-06T14:33:20Z</time></trkpt><trkpt lat="40.15280011136787" lon="18.065561837203695"><ele>50.66666666666667</ele><time>2026-04-06T14:33:22Z</time></trkpt><trkpt lat="40.152751260399874" lon="18.065477225006784"><ele>50.5</ele><time>2026-04-06T14:33:25Z</time></trkpt><trkpt lat="40.15271181127921" lon="18.06537754810091"><ele>50.333333333333336</ele><time>2026-04-06T14:34:51Z</time></trkpt><trkpt lat="40.15264441156405" lon="18.065257758717546"><ele>50.16666666666667</ele><time>2026-04-06T14:34:53Z</time></trkpt><trkpt lat="40.152597983948496" lon="18.065174248940544"><ele>50.0</ele><time>2026-04-06T14:34:54Z</time></trkpt><trkpt lat="40.15255562743729" lon="18.0650742178492"><ele>50.00000000000001</ele><time>2026-04-06T14:34:55Z</time></trkpt><trkpt lat="40.15250079318381" lon="18.064978146810052"><ele>50.0</ele><time>2026-04-06T14:34:56Z</time></trkpt><trkpt lat="40.152454122254355" lon="18.06490094463668"><ele>50.0</ele><time>2026-04-06T14:34:57Z</time></trkpt><trkpt lat="40.15241143177836" lon="18.064822564867058"><ele>50.0</ele><time>2026-04-06T14:34:58Z</time></trkpt><trkpt lat="40.15237238952367" lon="18.064754148043576"><ele>50.00000000000001</ele><time>2026-04-06T14:34:59Z</time></trkpt><trkpt lat="40.15231442627402" lon="18.06464680833821"><ele>50.0</ele><time>2026-04-06T14:35:01Z</time></trkpt><trkpt lat="40.1522797344486" lon="18.064572442445737"><ele>50.0</ele><time>2026-04-06T14:35:04Z</time></trkpt><trkpt lat="40.152396867021224" lon="18.06452515736239"><ele>50.0</ele><time>2026-04-06T14:35:05Z</time></trkpt><trkpt lat="40.15248579407065" lon="18.064497336060327"><ele>50.0</ele><time>2026-04-06T14:35:06Z</time></trkpt><trkpt lat="40.15257843751971" lon="18.064491454961345"><ele>50.0</ele><time>2026-04-06T14:35:07Z</time></trkpt><trkpt lat="40.15265384121121" lon="18.06451450965024"><ele>50.0</ele><time>2026-04-06T14:35:08Z</time></trkpt><trkpt lat="40.15272295504928" lon="18.06455474940614"><ele>50.0</ele><time>2026-04-06T14:35:09Z</time></trkpt><trkpt lat="40.15280682213321" lon="18.06462441920065"><ele>50.0</ele><time>2026-04-06T14:35:10Z</time></trkpt><trkpt lat="40.15287535590871" lon="18.064708916335288"><ele>50.0</ele><time>2026-04-06T14:35:11Z</time></trkpt><trkpt lat="40.15292802757038" lon="18.064813720662215"><ele>50.0</ele><time>2026-04-06T14:35:12Z</time></trkpt><trkpt lat="40.152996828047186" lon="18.06494075928085"><ele>50.0</ele><time>2026-04-06T14:35:13Z</time></trkpt><trkpt lat="40.153067983172235" lon="18.065058564795763"><ele>50.0</ele><time>2026-04-06T14:35:14Z</time></trkpt><trkpt lat="40.15312947748463" lon="18.06521142596152"><ele>50.0</ele><time>2026-04-06T14:35:15Z</time></trkpt><trkpt lat="40.15320915066509" lon="18.065335420950777"><ele>50.0</ele><time>2026-04-06T14:35:16Z</time></trkpt><trkpt lat="40.1532788641547" lon="18.06544744727155"><ele>50.0</ele><time>2026-04-06T14:35:17Z</time></trkpt><trkpt lat="40.15333635697123" lon="18.065558886931218"><ele>50.0</ele><time>2026-04-06T14:35:18Z</time></trkpt><trkpt lat="40.153392931923584" lon="18.06566495427461"><ele>50.0</ele><time>2026-04-06T14:35:19Z</time></trkpt><trkpt lat="40.153445555493626" lon="18.065765310380666"><ele>50.0</ele><time>2026-04-06T14:35:20Z</time></trkpt><trkpt lat="40.15349937897478" lon="18.065857189916855"><ele>50.0</ele><time>2026-04-06T14:35:21Z</time></trkpt><trkpt lat="40.153563108270546" lon="18.06595908525927"><ele>50.0</ele><time>2026-04-06T14:35:22Z</time></trkpt><trkpt lat="40.15363311442435" lon="18.066094024277344"><ele>50.0</ele><time>2026-04-06T14:35:23Z</time></trkpt><trkpt lat="40.153699677935435" lon="18.06623292100126"><ele>50.0</ele><time>2026-04-06T14:35:24Z</time></trkpt><trkpt lat="40.15377038335232" lon="18.066341842297355"><ele>50.0</ele><time>2026-04-06T14:35:25Z</time></trkpt><trkpt lat="40.153833819002024" lon="18.066450604675886"><ele>50.0</ele><time>2026-04-06T14:35:26Z</time></trkpt><trkpt lat="40.15388777765802" lon="18.06655669463687"><ele>50.0</ele><time>2026-04-06T14:35:27Z</time></trkpt><trkpt lat="40.15393557856963" lon="18.066647978828136"><ele>50.0</ele><time>2026-04-06T14:35:28Z</time></trkpt><trkpt lat="40.15397999187569" lon="18.06672189636918"><ele>50.0</ele><time>2026-04-06T14:35:29Z</time></trkpt><trkpt lat="40.15403670741239" lon="18.066833627402037"><ele>50.0</ele><time>2026-04-06T14:35:31Z</time></trkpt><trkpt lat="40.154116213814426" lon="18.066928753315512"><ele>50.0</ele><time>2026-04-06T14:36:14Z</time></trkpt><trkpt lat="40.15419848217768" lon="18.066925397742537"><ele>50.0</ele><time>2026-04-06T14:36:17Z</time></trkpt><trkpt lat="40.15430212104577" lon="18.066837119958034"><ele>50.0</ele><time>2026-04-06T14:36:19Z</time></trkpt><trkpt lat="40.154365422779456" lon="18.066780158602043"><ele>50.0</ele><time>2026-04-06T14:36:20Z</time></trkpt><trkpt lat="40.15444544124071" lon="18.06671083620325"><ele>50.0</ele><time>2026-04-06T14:36:21Z</time></trkpt><trkpt lat="40.154514076982174" lon="18.066642788535177"><ele>50.0</ele><time>2026-04-06T14:36:22Z</time></trkpt><trkpt lat="40.15459424489994" lon="18.06657434819855"><ele>50.0</ele><time>2026-04-06T14:36:23Z</time></trkpt><trkpt lat="40.15468210283976" lon="18.066497249845636"><ele>49.4</ele><time>2026-04-06T14:36:24Z</time></trkpt><trkpt lat="40.15476263106143" lon="18.066413318888095"><ele>48.8</ele><time>2026-04-06T14:36:25Z</time></trkpt><trkpt lat="40.15484853966066" lon="18.066330388011846"><ele>48.2</ele><time>2026-04-06T14:36:26Z</time></trkpt><trkpt lat="40.154935100577696" lon="18.0662458846451"><ele>47.6</ele><time>2026-04-06T14:36:27Z</time></trkpt><trkpt lat="40.15502651200675" lon="18.06616302609303"><ele>47.0</ele><time>2026-04-06T14:36:28Z</time></trkpt><trkpt lat="40.155115166704796" lon="18.06608480792431"><ele>47.0</ele><time>2026-04-06T14:36:29Z</time></trkpt><trkpt lat="40.15520273374161" lon="18.066008100171146"><ele>47.0</ele><time>2026-04-06T14:36:30Z</time></trkpt><trkpt lat="40.15529765129382" lon="18.065922754563726"><ele>47.0</ele><time>2026-04-06T14:36:31Z</time></trkpt><trkpt lat="40.155387341259306" lon="18.065840278946638"><ele>47.0</ele><time>2026-04-06T14:36:32Z</time></trkpt><trkpt lat="40.15548331927251" lon="18.065742893179113"><ele>47.0</ele><time>2026-04-06T14:36:33Z</time></trkpt><trkpt lat="40.15559259640268" lon="18.065649110412316"><ele>47.0</ele><time>2026-04-06T14:36:34Z</time></trkpt><trkpt lat="40.15569768181463" lon="18.06556650259876"><ele>47.0</ele><time>2026-04-06T14:36:35Z</time></trkpt><trkpt lat="40.15580236264149" lon="18.06548582839214"><ele>47.0</ele><time>2026-04-06T14:36:36Z</time></trkpt><trkpt lat="40.15591326399103" lon="18.06539914338012"><ele>47.0</ele><time>2026-04-06T14:36:37Z</time></trkpt><trkpt lat="40.15602356662672" lon="18.065314924636212"><ele>47.0</ele><time>2026-04-06T14:36:38Z</time></trkpt><trkpt lat="40.156140640764896" lon="18.065241442170144"><ele>47.0</ele><time>2026-04-06T14:36:39Z</time></trkpt><trkpt lat="40.1562610096999" lon="18.065160657306624"><ele>47.0</ele><time>2026-04-06T14:36:40Z</time></trkpt><trkpt lat="40.15638740214583" lon="18.065087069466976"><ele>47.0</ele><time>2026-04-06T14:36:41Z</time></trkpt><trkpt lat="40.1565100362373" lon="18.06501314241321"><ele>47.0</ele><time>2026-04-06T14:36:42Z</time></trkpt><trkpt lat="40.15662264538715" lon="18.064927932094154"><ele>47.0</ele><time>2026-04-06T14:36:43Z</time></trkpt><trkpt lat="40.1567381552423" lon="18.064848276844913"><ele>47.0</ele><time>2026-04-06T14:36:44Z</time></trkpt><trkpt lat="40.15685404269241" lon="18.06477637201107"><ele>46.75</ele><time>2026-04-06T14:36:45Z</time></trkpt><trkpt lat="40.15695890314907" lon="18.064705184494386"><ele>46.5</ele><time>2026-04-06T14:36:46Z</time></trkpt><trkpt lat="40.15706353498702" lon="18.064640604113173"><ele>46.25</ele><time>2026-04-06T14:36:47Z</time></trkpt><trkpt lat="40.157174990645544" lon="18.06458622751537"><ele>46.0</ele><time>2026-04-06T14:36:48Z</time></trkpt><trkpt lat="40.15728864002549" lon="18.064523571314215"><ele>46.5</ele><time>2026-04-06T14:36:49Z</time></trkpt><trkpt lat="40.15740472017426" lon="18.06445831583034"><ele>47.0</ele><time>2026-04-06T14:36:50Z</time></trkpt><trkpt lat="40.15752511684134" lon="18.06439636275184"><ele>47.5</ele><time>2026-04-06T14:36:51Z</time></trkpt><trkpt lat="40.15763752344468" lon="18.06432697343383"><ele>48.0</ele><time>2026-04-06T14:36:52Z</time></trkpt><trkpt lat="40.15774459546991" lon="18.064271205367884"><ele>48.0</ele><time>2026-04-06T14:36:53Z</time></trkpt><trkpt lat="40.15785481478868" lon="18.064216914670684"><ele>48.0</ele><time>2026-04-06T14:36:54Z</time></trkpt><trkpt lat="40.15796871534089" lon="18.064150454182876"><ele>48.0</ele><time>2026-04-06T14:36:55Z</time></trkpt><trkpt lat="40.15808960963098" lon="18.06409505093248"><ele>48.0</ele><time>2026-04-06T14:36:56Z</time></trkpt><trkpt lat="40.158206357910366" lon="18.064039659205203"><ele>47.599999999999994</ele><time>2026-04-06T14:36:57Z</time></trkpt><trkpt lat="40.15831738900038" lon="18.0639897622364"><ele>47.199999999999996</ele><time>2026-04-06T14:36:58Z</time></trkpt><trkpt lat="40.15842278099322" lon="18.063949968506343"><ele>46.8</ele><time>2026-04-06T14:36:59Z</time></trkpt><trkpt lat="40.15851891773368" lon="18.06391396984058"><ele>46.4</ele><time>2026-04-06T14:37:00Z</time></trkpt><trkpt lat="40.1586126357441" lon="18.063875613330623"><ele>46.0</ele><time>2026-04-06T14:37:01Z</time></trkpt><trkpt lat="40.158702634778805" lon="18.06384041854051"><ele>46.0</ele><time>2026-04-06T14:37:02Z</time></trkpt><trkpt lat="40.1587878420597" lon="18.06380884112236"><ele>46.0</ele><time>2026-04-06T14:37:03Z</time></trkpt><trkpt lat="40.158866834641465" lon="18.063767883567"><ele>46.0</ele><time>2026-04-06T14:37:04Z</time></trkpt><trkpt lat="40.1589459686869" lon="18.06374753163013"><ele>46.0</ele><time>2026-04-06T14:37:05Z</time></trkpt><trkpt lat="40.1590181075065" lon="18.063725026513954"><ele>46.0</ele><time>2026-04-06T14:37:06Z</time></trkpt><trkpt lat="40.15908907000336" lon="18.06369534395433"><ele>46.0</ele><time>2026-04-06T14:37:07Z</time></trkpt><trkpt lat="40.15915127630649" lon="18.06366837101698"><ele>46.599999999999994</ele><time>2026-04-06T14:37:08Z</time></trkpt><trkpt lat="40.159213423880956" lon="18.06364734843834"><ele>47.2</ele><time>2026-04-06T14:37:09Z</time></trkpt><trkpt lat="40.15930552683883" lon="18.06361400944798"><ele>47.8</ele><time>2026-04-06T14:37:11Z</time></trkpt><trkpt lat="40.159371380717815" lon="18.06360257968414"><ele>48.400000000000006</ele><time>2026-04-06T14:38:48Z</time></trkpt><trkpt lat="40.1593301514148" lon="18.06376728285328"><ele>49.0</ele><time>2026-04-06T14:38:56Z</time></trkpt><trkpt lat="40.15945266314718" lon="18.063744677129044"><ele>49.0</ele><time>2026-04-06T14:38:58Z</time></trkpt><trkpt lat="40.159517537155196" lon="18.06371336015065"><ele>49.0</ele><time>2026-04-06T14:39:09Z</time></trkpt><trkpt lat="40.15952563027151" lon="18.063800562993208"><ele>49.0</ele><time>2026-04-06T14:39:18Z</time></trkpt><trkpt lat="40.15958648842745" lon="18.063772469386787"><ele>49.0</ele><time>2026-04-06T14:43:05Z</time></trkpt><trkpt lat="40.159655118873765" lon="18.063775378529314"><ele>49.0</ele><time>2026-04-06T14:43:11Z</time></trkpt><trkpt lat="40.15972289628719" lon="18.063813971237657"><ele>49.0</ele><time>2026-04-06T14:43:17Z</time></trkpt><trkpt lat="40.15979750732758" lon="18.06383361698911"><ele>49.0</ele><time>2026-04-06T14:43:22Z</time></trkpt><trkpt lat="40.159857786429605" lon="18.06387786732039"><ele>48.714285714285715</ele><time>2026-04-06T14:43:27Z</time></trkpt><trkpt lat="40.159919566986154" lon="18.06392639815115"><ele>48.42857142857143</ele><time>2026-04-06T14:43:34Z</time></trkpt><trkpt lat="40.15998060707892" lon="18.06389763966558"><ele>48.14285714285714</ele><time>2026-04-06T14:43:39Z</time></trkpt><trkpt lat="40.1599870353713" lon="18.063992537733913"><ele>47.85714285714286</ele><time>2026-04-06T14:43:45Z</time></trkpt><trkpt lat="40.15992730201966" lon="18.064022103007055"><ele>47.57142857142857</ele><time>2026-04-06T14:43:50Z</time></trkpt><trkpt lat="40.16000534954808" lon="18.06403526871171"><ele>47.285714285714285</ele><time>2026-04-06T14:44:21Z</time></trkpt><trkpt lat="40.160067234274315" lon="18.064068564940857"><ele>47.0</ele><time>2026-04-06T14:44:25Z</time></trkpt><trkpt lat="40.16014060612934" lon="18.064083586804998"><ele>47.0</ele><time>2026-04-06T14:44:31Z</time></trkpt><trkpt lat="40.16018182159497" lon="18.06415109997772"><ele>47.0</ele><time>2026-04-06T14:44:37Z</time></trkpt><trkpt lat="40.16023459677801" lon="18.064196887344405"><ele>47.0</ele><time>2026-04-06T14:44:43Z</time></trkpt><trkpt lat="40.16027236228875" lon="18.06427481790265"><ele>47.0</ele><time>2026-04-06T14:44:50Z</time></trkpt><trkpt lat="40.16030609379156" lon="18.06435670804497"><ele>47.0</ele><time>2026-04-06T14:44:56Z</time></trkpt><trkpt lat="40.160222024854036" lon="18.064365609750794"><ele>47.0</ele><time>2026-04-06T14:45:28Z</time></trkpt></trkseg><trkseg><trkpt lat="40.15937685751565" lon="18.06371159517096"><ele>48.99999999999999</ele><time>2026-04-06T14:58:10Z</time></trkpt><trkpt lat="40.15930696333998" lon="18.0636664981275"><ele>49.0</ele><time>2026-04-06T14:58:25Z</time></trkpt><trkpt lat="40.159334847906926" lon="18.063586742779137"><ele>49.0</ele><time>2026-04-06T14:58:28Z</time></trkpt><trkpt lat="40.15940343929682" lon="18.063509107367434"><ele>49.0</ele><time>2026-04-06T14:58:31Z</time></trkpt><trkpt lat="40.159473072081205" lon="18.063449680322368"><ele>48.99999999999999</ele><time>2026-04-06T14:58:33Z</time></trkpt><trkpt lat="40.15956556050147" lon="18.06337677954457"><ele>49.0</ele><time>2026-04-06T14:58:35Z</time></trkpt><trkpt lat="40.159641880120674" lon="18.063285647513958"><ele>49.0</ele><time>2026-04-06T14:58:37Z</time></trkpt><trkpt lat="40.15972662671595" lon="18.06318715925936"><ele>49.0</ele><time>2026-04-06T14:58:39Z</time></trkpt><trkpt lat="40.15981104009434" lon="18.06308334147344"><ele>49.0</ele><time>2026-04-06T14:58:41Z</time></trkpt><trkpt lat="40.15988716703473" lon="18.062978847510593"><ele>49.0</ele><time>2026-04-06T14:58:43Z</time></trkpt><trkpt lat="40.15997022294682" lon="18.06285819832745"><ele>48.857142857142854</ele><time>2026-04-06T14:58:45Z</time></trkpt><trkpt lat="40.16001999966303" lon="18.062781047052837"><ele>48.714285714285715</ele><time>2026-04-06T14:58:46Z</time></trkpt><trkpt lat="40.160067401819596" lon="18.062707158113295"><ele>48.57142857142857</ele><time>2026-04-06T14:58:47Z</time></trkpt><trkpt lat="40.16011085765616" lon="18.062638497839217"><ele>48.42857142857143</ele><time>2026-04-06T14:58:48Z</time></trkpt><trkpt lat="40.16015770857884" lon="18.06257037333752"><ele>48.285714285714285</ele><time>2026-04-06T14:58:49Z</time></trkpt><trkpt lat="40.16020799143365" lon="18.062502223951952"><ele>48.14285714285714</ele><time>2026-04-06T14:58:50Z</time></trkpt><trkpt lat="40.16025362989457" lon="18.062429499242146"><ele>48.0</ele><time>2026-04-06T14:58:51Z</time></trkpt><trkpt lat="40.16029908143201" lon="18.062358901530438"><ele>47.71428571428571</ele><time>2026-04-06T14:58:52Z</time></trkpt><trkpt lat="40.160345477126675" lon="18.06228690457958"><ele>47.42857142857143</ele><time>2026-04-06T14:58:53Z</time></trkpt><trkpt lat="40.16039007423565" lon="18.062216622822227"><ele>47.14285714285714</ele><time>2026-04-06T14:58:54Z</time></trkpt><trkpt lat="40.160435400312885" lon="18.062142654180676"><ele>46.857142857142854</ele><time>2026-04-06T14:58:55Z</time></trkpt><trkpt lat="40.160480802719746" lon="18.06206800536438"><ele>46.57142857142857</ele><time>2026-04-06T14:58:56Z</time></trkpt><trkpt lat="40.16052769212809" lon="18.061999590810892"><ele>46.285714285714285</ele><time>2026-04-06T14:58:57Z</time></trkpt><trkpt lat="40.16057760804084" lon="18.061931868010976"><ele>46.0</ele><time>2026-04-06T14:58:58Z</time></trkpt><trkpt lat="40.16062076490008" lon="18.061860636328532"><ele>46.0</ele><time>2026-04-06T14:58:59Z</time></trkpt><trkpt lat="40.16067164958577" lon="18.061791107728606"><ele>46.0</ele><time>2026-04-06T14:59:00Z</time></trkpt><trkpt lat="40.160717135845424" lon="18.061723270420153"><ele>46.0</ele><time>2026-04-06T14:59:01Z</time></trkpt><trkpt lat="40.16076777135388" lon="18.061658508940525"><ele>46.0</ele><time>2026-04-06T14:59:02Z</time></trkpt><trkpt lat="40.16081217432752" lon="18.061595319358652"><ele>46.0</ele><time>2026-04-06T14:59:03Z</time></trkpt><trkpt lat="40.16085893706865" lon="18.061526643292492"><ele>46.0</ele><time>2026-04-06T14:59:04Z</time></trkpt><trkpt lat="40.16089540534467" lon="18.061456596704033"><ele>46.0</ele><time>2026-04-06T14:59:05Z</time></trkpt><trkpt lat="40.160935362350415" lon="18.06139116303597"><ele>45.85714285714286</ele><time>2026-04-06T14:59:06Z</time></trkpt><trkpt lat="40.16097479782283" lon="18.061324560468176"><ele>45.71428571428571</ele><time>2026-04-06T14:59:07Z</time></trkpt><trkpt lat="40.16101012596647" lon="18.06125001841139"><ele>45.57142857142857</ele><time>2026-04-06T14:59:08Z</time></trkpt><trkpt lat="40.16104384235608" lon="18.061173436174666"><ele>45.42857142857143</ele><time>2026-04-06T14:59:09Z</time></trkpt><trkpt lat="40.16108258461274" lon="18.061098972461888"><ele>45.28571428571429</ele><time>2026-04-06T14:59:10Z</time></trkpt><trkpt lat="40.161127123392376" lon="18.06102941078565"><ele>45.14285714285714</ele><time>2026-04-06T14:59:11Z</time></trkpt><trkpt lat="40.161172378207496" lon="18.060960647707407"><ele>45.0</ele><time>2026-04-06T14:59:12Z</time></trkpt><trkpt lat="40.161218750680625" lon="18.060891582940467"><ele>45.0</ele><time>2026-04-06T14:59:13Z</time></trkpt><trkpt lat="40.16126974936823" lon="18.06083074347379"><ele>45.0</ele><time>2026-04-06T14:59:14Z</time></trkpt><trkpt lat="40.161326050197864" lon="18.060776946930712"><ele>45.0</ele><time>2026-04-06T14:59:15Z</time></trkpt><trkpt lat="40.161380891718004" lon="18.060736429778657"><ele>45.0</ele><time>2026-04-06T14:59:16Z</time></trkpt><trkpt lat="40.16147979209579" lon="18.060678257785383"><ele>45.0</ele><time>2026-04-06T14:59:18Z</time></trkpt><trkpt lat="40.16155871628115" lon="18.06062447193042"><ele>45.0</ele><time>2026-04-06T14:59:20Z</time></trkpt><trkpt lat="40.16165090548126" lon="18.060564195135502"><ele>44.666666666666664</ele><time>2026-04-06T14:59:22Z</time></trkpt><trkpt lat="40.161733154919055" lon="18.06050766892974"><ele>44.333333333333336</ele><time>2026-04-06T14:59:24Z</time></trkpt><trkpt lat="40.16179263763714" lon="18.060472242206664"><ele>44.0</ele><time>2026-04-06T14:59:26Z</time></trkpt><trkpt lat="40.1618559887384" lon="18.06043466558221"><ele>43.66666666666667</ele><time>2026-04-06T14:59:29Z</time></trkpt><trkpt lat="40.16193287731739" lon="18.060369692678602"><ele>43.333333333333336</ele><time>2026-04-06T14:59:32Z</time></trkpt><trkpt lat="40.16199103710904" lon="18.060318077701"><ele>43.0</ele><time>2026-04-06T14:59:35Z</time></trkpt><trkpt lat="40.16204702298055" lon="18.06026850423229"><ele>43.0</ele><time>2026-04-06T14:59:38Z</time></trkpt><trkpt lat="40.162098801120685" lon="18.06021795038921"><ele>43.0</ele><time>2026-04-06T14:59:40Z</time></trkpt><trkpt lat="40.16218120293362" lon="18.060143958479916"><ele>43.0</ele><time>2026-04-06T14:59:42Z</time></trkpt><trkpt lat="40.162235575360526" lon="18.060099805907655"><ele>43.0</ele><time>2026-04-06T14:59:45Z</time></trkpt><trkpt lat="40.162288104520115" lon="18.06005093227118"><ele>43.0</ele><time>2026-04-06T14:59:48Z</time></trkpt><trkpt lat="40.16235413981164" lon="18.059998181856074"><ele>43.0</ele><time>2026-04-06T14:59:51Z</time></trkpt><trkpt lat="40.16242394096948" lon="18.059939140341914"><ele>43.833333333333336</ele><time>2026-04-06T14:59:54Z</time></trkpt><trkpt lat="40.16249516125036" lon="18.059880663381968"><ele>44.66666666666667</ele><time>2026-04-06T14:59:57Z</time></trkpt><trkpt lat="40.1625562344944" lon="18.05983197170098"><ele>45.5</ele><time>2026-04-06T15:00:00Z</time></trkpt><trkpt lat="40.162624423224244" lon="18.059760150623738"><ele>46.333333333333336</ele><time>2026-04-06T15:00:02Z</time></trkpt><trkpt lat="40.16268369274036" lon="18.059696545653203"><ele>47.166666666666664</ele><time>2026-04-06T15:00:05Z</time></trkpt><trkpt lat="40.16275082023871" lon="18.05961630860687"><ele>48.0</ele><time>2026-04-06T15:00:08Z</time></trkpt><trkpt lat="40.16284514929082" lon="18.05950912275768"><ele>48.0</ele><time>2026-04-06T15:00:10Z</time></trkpt><trkpt lat="40.16290864944899" lon="18.059474860098664"><ele>48.0</ele><time>2026-04-06T15:00:11Z</time></trkpt><trkpt lat="40.16298133577397" lon="18.05941808795958"><ele>48.0</ele><time>2026-04-06T15:00:12Z</time></trkpt><trkpt lat="40.16305275577388" lon="18.059354153785286"><ele>48.0</ele><time>2026-04-06T15:00:13Z</time></trkpt><trkpt lat="40.16312762768106" lon="18.05929722172448"><ele>48.0</ele><time>2026-04-06T15:00:14Z</time></trkpt><trkpt lat="40.16321794496035" lon="18.05923150262576"><ele>48.0</ele><time>2026-04-06T15:00:15Z</time></trkpt><trkpt lat="40.163314015877404" lon="18.059169527933665"><ele>47.333333333333336</ele><time>2026-04-06T15:00:16Z</time></trkpt><trkpt lat="40.16340116665193" lon="18.059106439710437"><ele>46.666666666666664</ele><time>2026-04-06T15:00:17Z</time></trkpt><trkpt lat="40.1634808791906" lon="18.059058642520135"><ele>46.0</ele><time>2026-04-06T15:00:18Z</time></trkpt><trkpt lat="40.163553561863104" lon="18.059008264487616"><ele>45.33333333333333</ele><time>2026-04-06T15:00:19Z</time></trkpt><trkpt lat="40.163618733025" lon="18.05895288717457"><ele>44.666666666666664</ele><time>2026-04-06T15:00:20Z</time></trkpt><trkpt lat="40.163689050923765" lon="18.05891160491993"><ele>44.0</ele><time>2026-04-06T15:00:21Z</time></trkpt><trkpt lat="40.163759313175014" lon="18.058860514523232"><ele>44.0</ele><time>2026-04-06T15:00:22Z</time></trkpt><trkpt lat="40.16383466954977" lon="18.058814463852247"><ele>44.0</ele><time>2026-04-06T15:00:23Z</time></trkpt><trkpt lat="40.16390292041531" lon="18.058766048652355"><ele>44.0</ele><time>2026-04-06T15:00:24Z</time></trkpt><trkpt lat="40.16396153783273" lon="18.058711185898233"><ele>44.0</ele><time>2026-04-06T15:00:25Z</time></trkpt><trkpt lat="40.16406918856315" lon="18.058650026955743"><ele>44.0</ele><time>2026-04-06T15:00:27Z</time></trkpt><trkpt lat="40.16415487875385" lon="18.058572386510914"><ele>43.75</ele><time>2026-04-06T15:00:29Z</time></trkpt><trkpt lat="40.16426067180857" lon="18.058519164279343"><ele>43.5</ele><time>2026-04-06T15:00:31Z</time></trkpt><trkpt lat="40.16435447614615" lon="18.058487800409004"><ele>43.25</ele><time>2026-04-06T15:00:33Z</time></trkpt><trkpt lat="40.16450553958844" lon="18.05860641616431"><ele>43.0</ele><time>2026-04-06T15:00:35Z</time></trkpt><trkpt lat="40.16459128320527" lon="18.058632455136102"><ele>43.0</ele><time>2026-04-06T15:00:36Z</time></trkpt><trkpt lat="40.16466718713721" lon="18.058674840274893"><ele>43.0</ele><time>2026-04-06T15:00:37Z</time></trkpt><trkpt lat="40.16476333510428" lon="18.05871882895537"><ele>43.0</ele><time>2026-04-06T15:00:38Z</time></trkpt><trkpt lat="40.16486474466132" lon="18.058769098928725"><ele>43.0</ele><time>2026-04-06T15:00:39Z</time></trkpt><trkpt lat="40.164960757116496" lon="18.05881720269141"><ele>43.0</ele><time>2026-04-06T15:00:40Z</time></trkpt><trkpt lat="40.16505002105396" lon="18.058867678428914"><ele>42.8</ele><time>2026-04-06T15:00:41Z</time></trkpt><trkpt lat="40.16514016725708" lon="18.058914994836712"><ele>42.599999999999994</ele><time>2026-04-06T15:00:42Z</time></trkpt><trkpt lat="40.165233520503364" lon="18.058950079254714"><ele>42.400000000000006</ele><time>2026-04-06T15:00:43Z</time></trkpt><trkpt lat="40.165323309128055" lon="18.058994633078505"><ele>42.2</ele><time>2026-04-06T15:00:44Z</time></trkpt><trkpt lat="40.16541439562751" lon="18.05903316267543"><ele>42.0</ele><time>2026-04-06T15:00:45Z</time></trkpt><trkpt lat="40.16550642753781" lon="18.05907169290553"><ele>42.0</ele><time>2026-04-06T15:00:46Z</time></trkpt><trkpt lat="40.16559889777358" lon="18.05911073886346"><ele>42.0</ele><time>2026-04-06T15:00:47Z</time></trkpt><trkpt lat="40.16568774169216" lon="18.059152889296243"><ele>42.0</ele><time>2026-04-06T15:00:48Z</time></trkpt><trkpt lat="40.16577541996814" lon="18.05919207852894"><ele>42.0</ele><time>2026-04-06T15:00:49Z</time></trkpt><trkpt lat="40.165861826478206" lon="18.059232256263023"><ele>42.0</ele><time>2026-04-06T15:00:50Z</time></trkpt><trkpt lat="40.16593044836175" lon="18.059294043419076"><ele>42.0</ele><time>2026-04-06T15:00:51Z</time></trkpt><trkpt lat="40.16600001830115" lon="18.059343416076327"><ele>42.0</ele><time>2026-04-06T15:00:52Z</time></trkpt><trkpt lat="40.166079574721834" lon="18.0593925658763"><ele>42.0</ele><time>2026-04-06T15:00:53Z</time></trkpt><trkpt lat="40.16614117585852" lon="18.05950817073276"><ele>42.0</ele><time>2026-04-06T15:00:54Z</time></trkpt><trkpt lat="40.16620554841107" lon="18.059641831968456"><ele>42.0</ele><time>2026-04-06T15:00:55Z</time></trkpt><trkpt lat="40.16625445619977" lon="18.059771396760485"><ele>42.0</ele><time>2026-04-06T15:00:56Z</time></trkpt><trkpt lat="40.16633207612997" lon="18.05989560311002"><ele>42.0</ele><time>2026-04-06T15:00:57Z</time></trkpt><trkpt lat="40.166392255274125" lon="18.06001743490486"><ele>42.0</ele><time>2026-04-06T15:00:58Z</time></trkpt><trkpt lat="40.16645880118059" lon="18.060124509297307"><ele>42.0</ele><time>2026-04-06T15:00:59Z</time></trkpt><trkpt lat="40.1665293655139" lon="18.06021168832832"><ele>42.0</ele><time>2026-04-06T15:01:00Z</time></trkpt><trkpt lat="40.166590095363325" lon="18.060298177663444"><ele>42.0</ele><time>2026-04-06T15:01:01Z</time></trkpt><trkpt lat="40.16665491546436" lon="18.060325191478274"><ele>42.0</ele><time>2026-04-06T15:01:02Z</time></trkpt><trkpt lat="40.166722170861426" lon="18.06039187633583"><ele>42.0</ele><time>2026-04-06T15:01:04Z</time></trkpt><trkpt lat="40.16666358906484" lon="18.060350916421385"><ele>42.0</ele><time>2026-04-06T15:01:33Z</time></trkpt></trkseg></trk></gpx>